createdAt,value
2019-03-09T00:02:39.966Z,8.25
2019-03-09T00:05:53.841Z,8.19
2019-03-09T00:09:08.128Z,8.17
2019-03-09T00:12:21.612Z,8.18
2019-03-09T00:15:35.066Z,8.26
2019-03-09T00:18:48.532Z,8.29
2019-03-09T00:22:02.372Z,8.22
2019-03-09T00:25:23.047Z,8.24
2019-03-09T00:28:44.191Z,8.18
2019-03-09T00:32:06.224Z,8.19
2019-03-09T00:35:19.967Z,8.17
2019-03-09T00:38:33.732Z,8.13
2019-03-09T00:41:47.182Z,8.12
2019-03-09T00:45:00.650Z,8.13
2019-03-09T00:48:14.389Z,8.15
2019-03-09T00:51:27.936Z,8.10
2019-03-09T00:54:41.995Z,8.05
2019-03-09T00:57:55.466Z,8.09
2019-03-09T01:01:09.432Z,8.02
2019-03-09T01:04:22.897Z,8.00
2019-03-09T01:07:36.467Z,8.03
2019-03-09T01:10:50.036Z,8.04
2019-03-09T01:14:03.854Z,8.04
2019-03-09T01:17:17.316Z,8.10
2019-03-09T01:20:30.776Z,8.04
2019-03-09T01:23:44.242Z,8.03
2019-03-09T01:26:58.079Z,8.03
2019-03-09T01:30:16.051Z,8.05
2019-03-09T01:33:29.523Z,7.97
2019-03-09T01:36:43.254Z,7.99
2019-03-09T01:39:56.821Z,8.01
2019-03-09T01:43:10.372Z,7.99
2019-03-09T01:46:24.131Z,7.96
2019-03-09T01:49:37.695Z,8.01
2019-03-09T01:52:51.518Z,7.99
2019-03-09T01:56:05.080Z,7.98
2019-03-09T01:59:18.839Z,7.95
2019-03-09T02:02:32.411Z,7.98
2019-03-09T02:05:46.157Z,8.02
2019-03-09T02:08:59.611Z,7.97
2019-03-09T02:12:13.987Z,7.96
2019-03-09T02:15:27.557Z,7.92
2019-03-09T02:18:41.016Z,7.89
2019-03-09T02:21:54.851Z,7.93
2019-03-09T02:25:08.910Z,7.99
2019-03-09T02:28:22.364Z,8.00
2019-03-09T02:31:35.823Z,8.09
2019-03-09T02:34:49.390Z,8.05
2019-03-09T02:38:10.941Z,8.03
2019-03-09T02:41:24.607Z,8.05
2019-03-09T02:44:38.056Z,8.02
2019-03-09T02:47:51.514Z,7.99
2019-03-09T02:51:05.275Z,7.94
2019-03-09T02:54:19.076Z,7.95
2019-03-09T02:57:32.652Z,7.93
2019-03-09T03:00:49.213Z,7.99
2019-03-09T03:04:03.102Z,7.94
2019-03-09T03:07:16.650Z,7.90
2019-03-09T03:10:30.116Z,7.94
2019-03-09T03:13:43.583Z,7.85
2019-03-09T03:16:57.050Z,7.74
2019-03-09T03:20:10.520Z,7.77
2019-03-09T03:23:24.084Z,7.73
2019-03-09T03:29:50.637Z,7.76
2019-03-09T03:33:04.221Z,7.68
2019-03-09T03:36:17.773Z,7.57
2019-03-09T03:39:31.224Z,7.50
2019-03-09T03:42:45.181Z,7.32
2019-03-09T03:45:58.744Z,7.14
2019-03-09T03:49:12.218Z,7.02
2019-03-09T03:52:25.675Z,6.92
2019-03-09T03:55:39.271Z,6.86
2019-03-09T03:58:53.054Z,6.85
2019-03-09T04:02:06.735Z,6.85
2019-03-09T04:05:20.302Z,6.85
2019-03-09T04:08:33.976Z,6.72
2019-03-09T04:11:47.946Z,6.74
2019-03-09T04:15:01.646Z,6.70
2019-03-09T04:18:15.194Z,6.72
2019-03-09T04:21:28.676Z,6.67
2019-03-09T04:24:42.513Z,6.73
2019-03-09T04:27:56.084Z,6.77
2019-03-09T04:31:09.567Z,6.69
2019-03-09T04:34:23.124Z,6.73
2019-03-09T04:37:36.587Z,6.75
2019-03-09T04:40:50.046Z,6.70
2019-03-09T04:44:03.523Z,6.68
2019-03-09T04:47:16.996Z,6.65
2019-03-09T04:50:30.466Z,6.73
2019-03-09T04:53:43.945Z,6.68
2019-03-09T04:56:57.408Z,6.64
2019-03-09T05:00:11.125Z,6.65
2019-03-09T05:03:24.658Z,6.69
2019-03-09T05:06:38.139Z,6.74
2019-03-09T05:10:13.231Z,6.73
2019-03-09T05:13:32.763Z,6.80
2019-03-09T05:16:46.230Z,6.74
2019-03-09T05:19:59.731Z,6.76
2019-03-09T05:23:33.150Z,6.78
2019-03-09T05:26:46.610Z,6.88
2019-03-09T05:30:00.190Z,6.93
2019-03-09T05:33:14.176Z,6.92
2019-03-09T05:36:27.653Z,7.05
2019-03-09T05:39:41.119Z,7.03
2019-03-09T05:42:54.965Z,7.07
2019-03-09T05:46:08.434Z,7.05
2019-03-09T05:49:21.899Z,7.08
2019-03-09T05:52:36.242Z,7.10
2019-03-09T05:55:49.916Z,7.19
2019-03-09T05:59:03.587Z,7.19
2019-03-09T06:02:17.060Z,7.22
2019-03-09T06:05:32.473Z,7.28
2019-03-09T06:08:47.513Z,7.25
2019-03-09T06:12:01.079Z,7.34
2019-03-09T06:15:14.561Z,7.49
2019-03-09T06:18:28.410Z,7.42
2019-03-09T06:21:41.871Z,7.41
2019-03-09T06:24:55.321Z,7.46
2019-03-09T06:28:08.800Z,7.44
2019-03-09T06:31:22.281Z,7.47
2019-03-09T06:34:36.168Z,7.63
2019-03-09T06:37:57.283Z,7.59
2019-03-09T06:41:12.870Z,7.61
2019-03-09T06:44:26.640Z,7.62
2019-03-09T06:47:40.112Z,7.65
2019-03-09T06:50:53.889Z,7.73
2019-03-09T06:54:07.578Z,7.82
2019-03-09T06:57:21.154Z,7.93
2019-03-09T07:00:38.822Z,8.08
2019-03-09T07:03:52.419Z,8.20
2019-03-09T07:07:05.867Z,8.24
2019-03-09T07:10:19.520Z,8.32
2019-03-09T07:13:33.000Z,8.37
2019-03-09T07:16:46.463Z,8.44
2019-03-09T07:20:01.039Z,8.58
2019-03-09T07:23:14.612Z,8.71
2019-03-09T07:26:31.015Z,8.87
2019-03-09T07:29:44.826Z,8.99
2019-03-09T07:32:58.396Z,9.21
2019-03-09T07:36:12.218Z,9.34
2019-03-09T07:39:25.680Z,9.38
2019-03-09T07:42:39.412Z,9.54
2019-03-09T07:45:52.863Z,9.74
2019-03-09T07:49:06.321Z,9.60
2019-03-09T07:52:36.895Z,9.55
2019-03-09T07:55:50.599Z,9.56
2019-03-09T07:59:04.073Z,9.81
2019-03-09T08:02:17.758Z,9.86
2019-03-09T08:05:31.215Z,9.91
2019-03-09T08:08:45.046Z,9.99
2019-03-09T08:11:58.546Z,10.00
2019-03-09T08:15:14.365Z,10.18
2019-03-09T08:18:27.827Z,10.40
2019-03-09T08:21:41.577Z,10.46
2019-03-09T08:24:55.170Z,10.45
2019-03-09T08:28:08.941Z,10.58
2019-03-09T08:31:22.464Z,10.61
2019-03-09T08:34:35.917Z,10.42
2019-03-09T08:37:50.191Z,10.31
2019-03-09T08:41:03.753Z,10.28
2019-03-09T08:44:17.258Z,10.35
2019-03-09T08:47:30.741Z,10.27
2019-03-09T08:50:44.219Z,10.27
2019-03-09T08:53:58.352Z,10.44
2019-03-09T08:57:11.857Z,10.24
2019-03-09T09:00:29.994Z,10.19
2019-03-09T09:03:43.160Z,10.15
2019-03-09T09:06:56.835Z,10.32
2019-03-09T09:10:10.737Z,10.47
2019-03-09T09:13:24.607Z,10.37
2019-03-09T09:16:38.368Z,10.41
2019-03-09T09:19:51.827Z,10.48
2019-03-09T09:23:05.279Z,10.42
2019-03-09T09:26:18.747Z,10.35
2019-03-09T09:29:32.330Z,10.50
2019-03-09T09:32:45.931Z,10.40
2019-03-09T09:35:59.731Z,10.57
2019-03-09T09:39:13.190Z,10.51
2019-03-09T09:42:26.655Z,10.62
2019-03-09T09:45:40.641Z,10.60
2019-03-09T09:48:54.153Z,10.53
2019-03-09T09:52:08.407Z,10.53
2019-03-09T09:55:21.876Z,10.58
2019-03-09T09:58:37.114Z,10.49
2019-03-09T10:01:50.781Z,10.76
2019-03-09T10:05:05.067Z,10.79
2019-03-09T10:08:18.531Z,10.93
2019-03-09T10:11:32.018Z,11.15
2019-03-09T10:14:45.481Z,11.36
2019-03-09T10:17:58.951Z,11.41
2019-03-09T10:21:13.015Z,11.66
2019-03-09T10:24:26.759Z,11.87
2019-03-09T10:27:40.330Z,11.93
2019-03-09T10:30:53.902Z,11.87
2019-03-09T10:34:07.459Z,11.88
2019-03-09T10:37:21.257Z,12.18
2019-03-09T10:40:34.778Z,12.43
2019-03-09T10:43:48.654Z,12.56
2019-03-09T10:47:02.333Z,12.66
2019-03-09T10:50:15.909Z,12.97
2019-03-09T10:53:29.364Z,12.92
2019-03-09T10:56:42.860Z,13.04
2019-03-09T10:59:56.356Z,13.10
2019-03-09T11:03:09.936Z,13.00
2019-03-09T11:06:23.423Z,12.91
2019-03-09T11:09:36.893Z,12.91
2019-03-09T11:12:50.967Z,12.68
2019-03-09T11:16:04.442Z,12.51
2019-03-09T11:19:18.220Z,12.39
2019-03-09T11:22:31.774Z,12.06
2019-03-09T11:25:45.236Z,12.05
2019-03-09T11:28:58.708Z,11.99
2019-03-09T11:32:12.182Z,11.75
2019-03-09T11:35:25.653Z,11.61
2019-03-09T11:38:39.133Z,11.42
2019-03-09T11:41:52.707Z,11.66
2019-03-09T11:45:07.201Z,11.75
2019-03-09T11:48:20.684Z,11.29
2019-03-09T11:51:34.305Z,11.24
2019-03-09T11:54:47.748Z,11.07
2019-03-09T11:58:01.324Z,11.03
2019-03-09T12:01:15.182Z,10.86
2019-03-09T12:04:28.646Z,10.95
2019-03-09T12:07:42.256Z,10.88
2019-03-09T12:10:55.742Z,10.85
2019-03-09T12:14:09.418Z,10.75
2019-03-09T12:17:22.920Z,10.66
2019-03-09T12:20:36.607Z,10.61
2019-03-09T12:23:50.082Z,10.65
2019-03-09T12:27:03.962Z,10.74
2019-03-09T12:30:17.691Z,10.93
2019-03-09T12:33:31.484Z,11.28
2019-03-09T12:36:44.972Z,11.46
2019-03-09T12:39:58.438Z,11.35
2019-03-09T12:43:12.369Z,11.32
2019-03-09T12:46:26.029Z,11.42
2019-03-09T12:49:39.883Z,11.47
2019-03-09T12:52:53.463Z,11.31
2019-03-09T12:56:06.919Z,10.96
2019-03-09T12:59:20.632Z,10.79
2019-03-09T13:02:34.971Z,10.63
2019-03-09T13:05:48.563Z,10.56
2019-03-09T13:09:03.930Z,10.67
2019-03-09T13:12:17.504Z,10.54
2019-03-09T13:15:31.423Z,10.61
2019-03-09T13:18:44.998Z,10.58
2019-03-09T13:21:58.464Z,10.57
2019-03-09T13:25:12.930Z,10.53
2019-03-09T13:28:26.399Z,10.70
2019-03-09T13:31:39.955Z,10.63
2019-03-09T13:34:53.417Z,10.76
2019-03-09T13:38:06.888Z,10.83
2019-03-09T13:41:20.346Z,10.59
2019-03-09T13:44:34.086Z,10.54
2019-03-09T13:47:47.559Z,10.67
2019-03-09T13:51:01.772Z,10.42
2019-03-09T13:54:15.455Z,10.37
2019-03-09T13:57:28.913Z,10.47
2019-03-09T14:00:42.798Z,10.45
2019-03-09T14:03:56.333Z,10.87
2019-03-09T14:07:10.134Z,11.13
2019-03-09T14:10:23.718Z,10.97
2019-03-09T14:13:37.186Z,11.16
2019-03-09T14:16:51.119Z,11.19
2019-03-09T14:20:05.068Z,11.23
2019-03-09T14:23:18.873Z,11.22
2019-03-09T14:26:32.611Z,11.26
2019-03-09T14:29:46.209Z,11.29
2019-03-09T14:33:00.099Z,11.16
2019-03-09T14:36:13.623Z,11.05
2019-03-09T14:39:27.637Z,11.04
2019-03-09T14:42:41.333Z,11.09
2019-03-09T14:45:55.253Z,11.03
2019-03-09T14:49:08.775Z,10.95
2019-03-09T14:52:22.584Z,10.86
2019-03-09T14:55:36.188Z,10.86
2019-03-09T14:58:49.826Z,11.15
2019-03-09T15:02:03.606Z,11.52
2019-03-09T15:05:17.310Z,11.88
2019-03-09T15:08:30.803Z,12.21
2019-03-09T15:11:44.392Z,12.76
2019-03-09T15:14:58.090Z,12.75
2019-03-09T15:18:11.982Z,12.75
2019-03-09T15:21:25.604Z,12.80
2019-03-09T15:24:39.087Z,12.53
2019-03-09T15:27:52.683Z,12.18
2019-03-09T15:31:06.161Z,11.99
2019-03-09T15:34:20.074Z,11.94
2019-03-09T15:37:33.779Z,11.84
2019-03-09T15:40:47.358Z,11.88
2019-03-09T15:44:00.939Z,11.80
2019-03-09T15:47:14.419Z,11.76
2019-03-09T15:50:28.135Z,11.66
2019-03-09T15:53:41.672Z,11.52
2019-03-09T15:56:55.419Z,11.42
2019-03-09T16:00:12.547Z,11.38
2019-03-09T16:03:26.193Z,11.44
2019-03-09T16:06:39.801Z,11.60
2019-03-09T16:09:53.414Z,11.77
2019-03-09T16:13:06.943Z,11.70
2019-03-09T16:16:20.437Z,11.57
2019-03-09T16:19:34.118Z,11.52
2019-03-09T16:22:47.788Z,11.57
2019-03-09T16:26:01.257Z,11.48
2019-03-09T16:29:14.703Z,11.47
2019-03-09T16:32:28.174Z,11.40
2019-03-09T16:35:41.640Z,11.40
2019-03-09T16:38:55.102Z,11.33
2019-03-09T16:42:08.678Z,11.34
2019-03-09T16:45:22.154Z,11.33
2019-03-09T16:48:35.627Z,11.26
2019-03-09T16:51:49.452Z,11.30
2019-03-09T16:55:03.832Z,11.28
2019-03-09T16:58:17.411Z,11.17
2019-03-09T17:01:30.966Z,11.09
2019-03-09T17:04:44.730Z,11.05
2019-03-09T17:07:58.525Z,10.99
2019-03-09T17:11:12.018Z,10.90
2019-03-09T17:14:25.801Z,10.82
2019-03-09T17:17:39.268Z,10.76
2019-03-09T17:20:52.730Z,10.73
2019-03-09T17:24:06.487Z,10.73
2019-03-09T17:27:19.946Z,10.67
2019-03-09T17:30:33.420Z,10.67
2019-03-09T17:33:47.028Z,10.62
2019-03-09T17:37:00.502Z,10.62
2019-03-09T17:40:14.455Z,10.61
2019-03-09T17:43:28.187Z,10.50
2019-03-09T17:46:41.653Z,10.48
2019-03-09T17:49:55.219Z,10.55
2019-03-09T17:53:08.968Z,10.49
2019-03-09T17:56:22.415Z,10.50
2019-03-09T17:59:35.882Z,10.53
2019-03-09T18:02:49.471Z,10.44
2019-03-09T18:06:03.032Z,10.43
2019-03-09T18:09:16.510Z,10.45
2019-03-09T18:12:29.957Z,10.42
2019-03-09T18:15:43.484Z,10.40
2019-03-09T18:18:57.005Z,10.37
2019-03-09T18:22:10.686Z,10.38
2019-03-09T18:25:24.268Z,10.26
2019-03-09T18:28:37.824Z,10.29
2019-03-09T18:31:51.324Z,10.31
2019-03-09T18:35:05.383Z,10.32
2019-03-09T18:38:18.851Z,10.31
2019-03-09T18:41:32.318Z,10.26
2019-03-09T18:44:45.895Z,10.27
2019-03-09T18:47:59.359Z,10.23
2019-03-09T18:51:12.928Z,10.24
2019-03-09T18:54:26.386Z,10.28
2019-03-09T18:57:39.953Z,10.26
2019-03-09T19:00:53.426Z,10.27
2019-03-09T19:04:07.016Z,10.29
2019-03-09T19:07:20.473Z,10.31
2019-03-09T19:10:34.266Z,10.33
2019-03-09T19:13:47.725Z,10.38
2019-03-09T19:17:01.186Z,10.40
2019-03-09T19:20:14.856Z,10.42
2019-03-09T19:23:28.307Z,10.35
2019-03-09T19:26:41.780Z,10.45
2019-03-09T19:29:55.354Z,10.36
2019-03-09T19:33:08.816Z,10.36
2019-03-09T19:36:22.369Z,10.37
2019-03-09T19:39:35.839Z,10.39
2019-03-09T19:42:49.506Z,10.37
2019-03-09T19:46:03.184Z,10.42
2019-03-09T19:49:16.652Z,10.45
2019-03-09T19:52:30.098Z,10.47
2019-03-09T19:55:43.570Z,10.43
2019-03-09T19:58:57.040Z,10.39
2019-03-09T20:02:10.612Z,10.38
2019-03-09T20:05:24.099Z,10.42
2019-03-09T20:08:37.558Z,10.48
2019-03-09T20:11:51.354Z,10.47
2019-03-09T20:15:06.315Z,10.48
2019-03-09T20:18:19.764Z,10.45
2019-03-09T20:21:33.270Z,10.38
2019-03-09T20:24:46.718Z,10.39
2019-03-09T20:28:00.209Z,10.40
2019-03-09T20:31:13.779Z,10.47
2019-03-09T20:34:27.242Z,10.48
2019-03-09T20:37:40.887Z,10.54
2019-03-09T20:40:54.662Z,10.53
2019-03-09T20:44:08.161Z,10.53
2019-03-09T20:47:21.615Z,10.54
2019-03-09T20:50:35.073Z,10.53
2019-03-09T20:53:48.648Z,10.54
2019-03-09T20:57:02.281Z,10.53
2019-03-09T21:00:16.020Z,10.50
2019-03-09T21:03:29.506Z,10.58
2019-03-09T21:06:42.977Z,10.53
2019-03-09T21:09:56.709Z,10.51
2019-03-09T21:13:10.703Z,10.48
2019-03-09T21:16:24.567Z,10.51
2019-03-09T21:19:38.548Z,10.46
2019-03-09T21:22:52.206Z,10.49
2019-03-09T21:26:05.660Z,10.47
2019-03-09T21:29:19.129Z,10.47
2019-03-09T21:32:32.591Z,10.47
2019-03-09T21:35:46.353Z,10.62
2019-03-09T21:38:59.848Z,10.62
2019-03-09T21:42:13.418Z,10.59
2019-03-09T21:45:27.078Z,10.62
2019-03-09T21:48:40.564Z,10.61
2019-03-09T21:51:54.010Z,10.48
2019-03-09T21:55:08.887Z,10.59
2019-03-09T21:58:22.348Z,10.66
2019-03-09T22:01:35.985Z,10.61
2019-03-09T22:04:49.528Z,10.57
2019-03-09T22:08:03.036Z,10.68
2019-03-09T22:11:16.657Z,10.53
2019-03-09T22:14:30.120Z,10.49
2019-03-09T22:17:43.591Z,10.53
2019-03-09T22:20:57.040Z,10.63
2019-03-09T22:24:10.511Z,10.61
2019-03-09T22:27:23.995Z,10.74
2019-03-09T22:30:37.435Z,10.71
2019-03-09T22:33:50.903Z,10.69
2019-03-09T22:37:04.698Z,10.64
2019-03-09T22:40:18.162Z,10.61
2019-03-09T22:43:31.634Z,10.68
2019-03-09T22:46:45.458Z,10.70
2019-03-09T22:49:58.932Z,10.71
2019-03-09T22:53:12.389Z,10.78
2019-03-09T22:56:25.843Z,10.76
2019-03-09T22:59:39.314Z,10.68
2019-03-09T23:02:52.996Z,10.70
2019-03-09T23:06:06.751Z,10.70
2019-03-09T23:09:20.325Z,10.67
2019-03-09T23:12:33.879Z,10.66
2019-03-09T23:15:47.348Z,10.65
2019-03-09T23:19:01.019Z,10.66
2019-03-09T23:22:14.467Z,10.70
2019-03-09T23:25:28.031Z,10.68
2019-03-09T23:28:46.335Z,10.65
2019-03-09T23:32:00.047Z,10.63
2019-03-09T23:35:14.125Z,10.63
2019-03-09T23:38:27.562Z,10.69
2019-03-09T23:41:41.030Z,10.73
2019-03-09T23:44:54.968Z,10.73
2019-03-09T23:48:08.454Z,10.80
2019-03-09T23:51:21.994Z,10.77
2019-03-09T23:54:35.688Z,10.74
2019-03-09T23:57:49.343Z,10.74
